createdAt,value
2022-12-18T05:01:05.949Z,-11.97
2022-12-18T05:02:04.727Z,-11.94
2022-12-18T05:03:04.744Z,-11.94
2022-12-18T05:04:04.762Z,-11.93
2022-12-18T05:05:04.676Z,-11.96
2022-12-18T05:06:04.618Z,-11.96
2022-12-18T05:07:05.294Z,-12.00
2022-12-18T05:08:04.616Z,-12.03
2022-12-18T05:09:04.612Z,-12.01
2022-12-18T05:10:04.595Z,-12.03
2022-12-18T05:11:04.585Z,-12.08
2022-12-18T05:12:04.554Z,-12.15
2022-12-18T05:13:04.813Z,-12.15
2022-12-18T05:14:04.535Z,-12.21
2022-12-18T05:15:11.562Z,-12.27
2022-12-18T05:16:04.561Z,-12.32
2022-12-18T05:17:04.530Z,-12.38
2022-12-18T05:18:04.495Z,-12.44
2022-12-18T05:19:05.160Z,-12.47
2022-12-18T05:20:04.462Z,-12.51
2022-12-18T05:21:04.475Z,-12.58
2022-12-18T05:22:04.443Z,-12.62
2022-12-18T05:23:04.456Z,-12.65
2022-12-18T05:24:04.422Z,-12.67
2022-12-18T05:25:04.810Z,-12.69
2022-12-18T05:26:04.400Z,-12.69
2022-12-18T05:27:04.412Z,-12.71
2022-12-18T05:28:04.410Z,-12.72
2022-12-18T05:29:04.390Z,-12.68
2022-12-18T05:30:04.354Z,-12.64
2022-12-18T05:31:05.084Z,-12.62
2022-12-18T05:32:04.375Z,-12.61
2022-12-18T05:33:04.351Z,-12.58
2022-12-18T05:34:04.305Z,-12.54
2022-12-18T05:35:04.339Z,-12.51
2022-12-18T05:36:04.277Z,-12.53
2022-12-18T05:37:05.024Z,-12.54
2022-12-18T05:38:04.270Z,-12.54
2022-12-18T05:39:04.315Z,-12.56
2022-12-18T05:40:04.247Z,-12.58
2022-12-18T05:41:04.272Z,-12.53
2022-12-18T05:42:04.216Z,-12.54
2022-12-18T05:43:04.294Z,-12.59
2022-12-18T05:44:04.194Z,-12.62
2022-12-18T05:45:04.203Z,-12.67
2022-12-18T05:46:04.214Z,-12.65
2022-12-18T05:47:04.218Z,-12.69
2022-12-18T05:48:04.134Z,-12.72
2022-12-18T05:49:04.219Z,-12.69
2022-12-18T05:50:04.115Z,-12.64
2022-12-18T05:51:04.135Z,-12.59
2022-12-18T05:52:04.098Z,-12.54
2022-12-18T05:53:04.110Z,-12.48
2022-12-18T05:54:04.114Z,-12.43
2022-12-18T05:55:04.078Z,-12.43
2022-12-18T05:56:04.048Z,-12.43
2022-12-18T05:57:04.048Z,-12.40
2022-12-18T05:58:04.025Z,-12.41
2022-12-18T05:59:04.058Z,-12.41
2022-12-18T06:00:04.501Z,-12.46
2022-12-18T06:01:04.018Z,-12.48
2022-12-18T06:02:04.124Z,-12.48
2022-12-18T06:03:04.170Z,-12.50
2022-12-18T06:04:04.055Z,-12.54
2022-12-18T06:05:03.962Z,-12.53
2022-12-18T06:06:04.161Z,-12.58
2022-12-18T06:07:03.960Z,-12.61
2022-12-18T06:08:03.921Z,-12.61
2022-12-18T06:09:03.928Z,-12.56
2022-12-18T06:10:03.889Z,-12.54
2022-12-18T06:11:03.912Z,-12.58
2022-12-18T06:12:03.928Z,-12.62
2022-12-18T06:13:03.882Z,-12.68
2022-12-18T06:14:03.862Z,-12.68
2022-12-18T06:15:03.861Z,-12.76
2022-12-18T06:16:03.835Z,-12.78
2022-12-18T06:17:03.827Z,-12.74
2022-12-18T06:18:04.003Z,-12.74
2022-12-18T06:19:03.802Z,-12.72
2022-12-18T06:20:03.843Z,-12.74
2022-12-18T06:21:03.785Z,-12.71
2022-12-18T06:22:03.776Z,-12.72
2022-12-18T06:23:03.766Z,-12.76
2022-12-18T06:24:03.844Z,-12.72
2022-12-18T06:25:03.736Z,-12.71
2022-12-18T06:26:03.709Z,-12.72
2022-12-18T06:27:03.732Z,-12.74
2022-12-18T06:28:03.697Z,-12.76
2022-12-18T06:29:03.708Z,-12.76
2022-12-18T06:30:03.737Z,-12.71
2022-12-18T06:31:03.801Z,-12.67
2022-12-18T06:32:03.651Z,-12.62
2022-12-18T06:33:03.648Z,-12.53
2022-12-18T06:34:03.625Z,-12.53
2022-12-18T06:35:03.633Z,-12.51
2022-12-18T06:36:03.651Z,-12.50
2022-12-18T06:37:03.647Z,-12.48
2022-12-18T06:38:03.586Z,-12.48
2022-12-18T06:39:03.588Z,-12.46
2022-12-18T06:40:03.685Z,-12.46
2022-12-18T06:41:03.566Z,-12.43
2022-12-18T06:42:03.516Z,-12.41
2022-12-18T06:43:03.547Z,-12.43
2022-12-18T06:44:03.505Z,-12.44
2022-12-18T06:45:03.743Z,-12.47
2022-12-18T06:46:03.529Z,-12.50
2022-12-18T06:47:03.506Z,-12.48
2022-12-18T06:48:03.472Z,-12.50
2022-12-18T06:49:03.461Z,-12.54
2022-12-18T06:50:03.435Z,-12.58
2022-12-18T06:51:03.512Z,-12.67
2022-12-18T06:52:03.426Z,-12.71
2022-12-18T06:53:03.448Z,-12.65
2022-12-18T06:54:03.392Z,-12.61
2022-12-18T06:55:03.402Z,-12.56
2022-12-18T06:56:09.194Z,-12.56
2022-12-18T06:57:04.438Z,-12.54
2022-12-18T06:58:03.350Z,-12.58
2022-12-18T06:59:03.328Z,-12.59
2022-12-18T07:00:03.342Z,-12.61
2022-12-18T07:01:03.349Z,-12.61
2022-12-18T07:02:03.518Z,-12.64
2022-12-18T07:03:03.390Z,-12.64
2022-12-18T07:04:03.284Z,-12.62
2022-12-18T07:05:08.942Z,-12.65
2022-12-18T07:06:04.264Z,-12.65
2022-12-18T07:07:03.239Z,-12.67
2022-12-18T07:08:03.244Z,-12.68
2022-12-18T07:09:03.273Z,-12.71
2022-12-18T07:10:03.216Z,-12.69
2022-12-18T07:11:03.180Z,-12.74
2022-12-18T07:12:03.191Z,-12.76
2022-12-18T07:13:03.176Z,-12.78
2022-12-18T07:14:03.182Z,-12.78
2022-12-18T07:15:03.201Z,-12.71
2022-12-18T07:16:03.198Z,-12.69
2022-12-18T07:17:03.143Z,-12.67
2022-12-18T07:18:03.130Z,-12.59
2022-12-18T07:19:03.136Z,-12.53
2022-12-18T07:20:03.117Z,-12.46
2022-12-18T07:21:03.129Z,-12.38
2022-12-18T07:22:03.132Z,-12.32
2022-12-18T07:23:03.070Z,-12.25
2022-12-18T07:24:03.056Z,-12.19
2022-12-18T07:25:03.033Z,-12.10
2022-12-18T07:26:03.035Z,-12.05
2022-12-18T07:27:03.196Z,-12.03
2022-12-18T07:28:03.036Z,-12.01
2022-12-18T07:29:02.983Z,-12.01
2022-12-18T07:30:02.999Z,-12.00
2022-12-18T07:31:02.982Z,-11.97
2022-12-18T07:32:03.030Z,-11.94
2022-12-18T07:33:03.072Z,-11.92
2022-12-18T07:34:02.944Z,-11.90
2022-12-18T07:35:02.972Z,-11.90
2022-12-18T07:36:02.921Z,-11.90
2022-12-18T07:37:02.887Z,-11.92
2022-12-18T07:38:02.912Z,-11.92
2022-12-18T07:39:02.961Z,-11.92
2022-12-18T07:40:02.890Z,-11.90
2022-12-18T07:41:02.867Z,-11.90
2022-12-18T07:42:02.849Z,-11.89
2022-12-18T07:43:02.840Z,-11.87
2022-12-18T07:44:02.849Z,-11.86
2022-12-18T07:45:02.848Z,-11.83
2022-12-18T07:46:02.978Z,-11.82
2022-12-18T07:47:06.523Z,-11.78
2022-12-18T07:48:03.796Z,-11.72
2022-12-18T07:49:02.755Z,-11.74
2022-12-18T07:50:02.763Z,-11.74
2022-12-18T07:51:03.169Z,-11.74
2022-12-18T07:52:02.725Z,-11.75
2022-12-18T07:53:02.716Z,-11.75
2022-12-18T07:54:02.731Z,-11.75
2022-12-18T07:55:02.700Z,-11.74
2022-12-18T07:57:03.872Z,-11.74
2022-12-18T07:58:02.664Z,-11.72
2022-12-18T07:59:02.639Z,-11.69
2022-12-18T08:00:02.666Z,-11.66
2022-12-18T08:01:02.677Z,-11.65
2022-12-18T08:02:02.760Z,-11.61
2022-12-18T08:03:02.707Z,-11.57
2022-12-18T08:04:02.628Z,-11.55
2022-12-18T08:05:02.567Z,-11.54
2022-12-18T08:06:02.596Z,-11.51
2022-12-18T08:07:02.536Z,-11.47
2022-12-18T08:08:02.556Z,-11.45
2022-12-18T08:09:03.132Z,-11.42
2022-12-18T08:10:09.552Z,-11.40
2022-12-18T08:11:09.511Z,-11.39
2022-12-18T08:12:09.512Z,-11.32
2022-12-18T08:13:09.483Z,-11.30
2022-12-18T08:14:09.587Z,-11.26
2022-12-18T08:15:09.457Z,-11.23
2022-12-18T08:16:09.610Z,-11.16
2022-12-18T08:17:02.448Z,-11.13
2022-12-18T08:18:02.453Z,-11.08
2022-12-18T08:19:02.402Z,-11.03
2022-12-18T08:20:02.712Z,-11.00
2022-12-18T08:21:02.384Z,-10.97
2022-12-18T08:22:02.382Z,-10.91
2022-12-18T08:23:02.369Z,-10.86
2022-12-18T08:24:02.383Z,-10.81
2022-12-18T08:25:02.342Z,-10.78
2022-12-18T08:26:02.431Z,-10.73
2022-12-18T08:27:29.676Z,-10.69
2022-12-18T08:28:03.339Z,-10.65
2022-12-18T08:29:02.288Z,-10.71
2022-12-18T08:30:02.308Z,-10.69
2022-12-18T08:31:02.344Z,-10.68
2022-12-18T08:32:02.446Z,-10.69
2022-12-18T08:33:02.244Z,-10.65
2022-12-18T08:34:02.280Z,-10.65
2022-12-18T08:35:02.238Z,-10.64
2022-12-18T08:36:02.232Z,-10.64
2022-12-18T08:37:02.216Z,-10.62
2022-12-18T08:38:02.405Z,-10.57
2022-12-18T08:39:02.176Z,-10.50
2022-12-18T08:40:02.185Z,-10.47
2022-12-18T08:41:02.145Z,-10.43
2022-12-18T08:42:06.760Z,-10.36
2022-12-18T08:43:03.201Z,-10.31
2022-12-18T08:44:02.155Z,-10.26
2022-12-18T08:45:02.092Z,-10.25
2022-12-18T08:46:02.234Z,-10.23
2022-12-18T08:47:02.078Z,-10.21
2022-12-18T08:48:02.111Z,-10.15
2022-12-18T08:49:02.098Z,-10.13
2022-12-18T08:50:02.095Z,-10.08
2022-12-18T08:51:02.030Z,-10.05
2022-12-18T08:52:02.046Z,-10.07
2022-12-18T08:53:02.021Z,-10.07
2022-12-18T08:54:02.070Z,-10.02
2022-12-18T08:55:02.037Z,-9.97
2022-12-18T08:56:02.002Z,-9.92
2022-12-18T08:57:01.988Z,-9.87
2022-12-18T08:58:01.967Z,-9.86
2022-12-18T08:59:01.993Z,-9.84
2022-12-18T09:00:01.971Z,-9.89
2022-12-18T09:01:02.336Z,-9.87
2022-12-18T09:02:02.110Z,-9.84
2022-12-18T09:03:02.117Z,-9.80
2022-12-18T09:04:01.917Z,-9.79
2022-12-18T09:05:01.892Z,-9.80
2022-12-18T09:06:01.899Z,-9.77
2022-12-18T09:07:02.213Z,-9.77
2022-12-18T09:08:01.882Z,-9.74
2022-12-18T09:09:01.820Z,-9.68
2022-12-18T09:10:01.821Z,-9.62
2022-12-18T09:11:01.868Z,-9.61
2022-12-18T09:12:01.912Z,-9.56
2022-12-18T09:13:02.567Z,-9.52
2022-12-18T09:14:01.773Z,-9.48
2022-12-18T09:15:01.779Z,-9.50
2022-12-18T09:16:01.786Z,-9.48
2022-12-18T09:17:01.837Z,-9.47
2022-12-18T09:18:01.814Z,-9.44
2022-12-18T09:19:01.757Z,-9.41
2022-12-18T09:20:01.715Z,-9.37
2022-12-18T09:21:01.808Z,-9.33
2022-12-18T09:22:01.697Z,-9.28
2022-12-18T09:23:01.653Z,-9.28
2022-12-18T09:24:01.673Z,-9.23
2022-12-18T09:25:01.831Z,-9.26
2022-12-18T09:26:01.633Z,-9.25
2022-12-18T09:27:01.739Z,-9.23
2022-12-18T09:28:01.611Z,-9.14
2022-12-18T09:29:01.705Z,-9.07
2022-12-18T09:30:01.582Z,-8.98
2022-12-18T09:31:02.238Z,-8.89
2022-12-18T09:32:01.564Z,-8.87
2022-12-18T09:33:01.526Z,-8.84
2022-12-18T09:34:01.577Z,-8.78
2022-12-18T09:35:01.589Z,-8.72
2022-12-18T09:36:01.538Z,-8.65
2022-12-18T09:37:01.798Z,-8.62
2022-12-18T09:38:02.634Z,-8.63
2022-12-18T09:39:05.124Z,-8.60
2022-12-18T09:40:02.474Z,-8.57
2022-12-18T09:41:01.467Z,-8.54
2022-12-18T09:42:01.517Z,-8.48
2022-12-18T09:43:01.426Z,-8.42
2022-12-18T09:44:01.494Z,-8.34
2022-12-18T09:45:01.470Z,-8.26
2022-12-18T09:46:01.438Z,-8.26
2022-12-18T09:47:01.384Z,-8.18
2022-12-18T09:48:01.380Z,-8.16
2022-12-18T09:49:01.392Z,-8.15
2022-12-18T09:50:01.434Z,-8.12
2022-12-18T09:51:01.319Z,-8.09
2022-12-18T09:52:01.373Z,-8.02
2022-12-18T09:53:01.298Z,-7.97
2022-12-18T09:54:01.311Z,-7.96
2022-12-18T09:55:01.269Z,-7.94
2022-12-18T09:56:01.329Z,-7.93
2022-12-18T09:57:01.326Z,-7.91
2022-12-18T09:58:01.321Z,-7.87
2022-12-18T09:59:01.229Z,-7.87
2022-12-18T10:00:01.242Z,-7.86
2022-12-18T10:01:01.211Z,-7.82
2022-12-18T10:02:01.618Z,-7.79
2022-12-18T10:03:01.391Z,-7.75
2022-12-18T10:04:01.230Z,-7.71
2022-12-18T10:05:01.168Z,-7.66
2022-12-18T10:06:01.173Z,-7.68
2022-12-18T10:07:07.278Z,-7.61
2022-12-18T10:08:03.124Z,-7.57
2022-12-18T10:09:01.136Z,-7.51
2022-12-18T10:10:01.170Z,-7.52
2022-12-18T10:11:01.123Z,-7.57
2022-12-18T10:12:01.112Z,-7.64
2022-12-18T10:13:04.539Z,-7.69
2022-12-18T10:14:01.272Z,-7.68
2022-12-18T10:15:01.030Z,-7.79
2022-12-18T10:16:01.128Z,-7.91
2022-12-18T10:17:01.013Z,-8.05
2022-12-18T10:18:01.060Z,-8.02
2022-12-18T10:19:00.979Z,-7.93
2022-12-18T10:20:01.542Z,-7.80
2022-12-18T10:21:00.971Z,-7.68
2022-12-18T10:22:00.994Z,-7.54
2022-12-18T10:23:01.088Z,-7.43
2022-12-18T10:24:00.957Z,-7.31
2022-12-18T10:25:00.939Z,-7.21
2022-12-18T10:26:07.019Z,-7.16
2022-12-18T10:27:00.887Z,-7.12
2022-12-18T10:28:00.975Z,-7.11
2022-12-18T10:29:05.272Z,-7.01
2022-12-18T10:30:00.962Z,-6.92
2022-12-18T10:31:00.948Z,-6.82
2022-12-18T10:32:00.844Z,-6.74
2022-12-18T10:33:00.820Z,-6.63
2022-12-18T10:34:00.834Z,-6.62
2022-12-18T10:35:01.243Z,-6.66
2022-12-18T10:36:00.804Z,-6.62
2022-12-18T10:37:00.892Z,-6.52
2022-12-18T10:38:00.785Z,-6.43
2022-12-18T10:39:00.740Z,-6.40
2022-12-18T10:40:00.903Z,-6.34
2022-12-18T10:41:00.770Z,-6.29
2022-12-18T10:42:00.734Z,-6.23
2022-12-18T10:43:00.911Z,-6.15
2022-12-18T10:44:00.716Z,-6.11
2022-12-18T10:45:00.669Z,-6.05
2022-12-18T10:46:00.741Z,-6.03
2022-12-18T10:47:00.649Z,-6.03
2022-12-18T10:48:00.691Z,-5.97
2022-12-18T10:49:01.779Z,-5.93
2022-12-18T10:50:00.651Z,-5.92
2022-12-18T10:51:13.141Z,-5.86
2022-12-18T10:52:01.785Z,-5.83
2022-12-18T10:53:00.625Z,-5.93
2022-12-18T10:54:00.635Z,-5.93
2022-12-18T10:55:01.041Z,-5.84
2022-12-18T10:56:00.613Z,-5.87
2022-12-18T10:57:00.543Z,-5.84
2022-12-18T10:58:00.515Z,-5.83
2022-12-18T10:59:00.529Z,-5.87
2022-12-18T11:00:00.494Z,-5.83
2022-12-18T11:01:01.642Z,-5.76
2022-12-18T11:02:00.549Z,-5.68
2022-12-18T11:03:00.648Z,-5.57
2022-12-18T11:04:02.657Z,-5.46
2022-12-18T11:05:00.483Z,-5.39
2022-12-18T11:06:00.432Z,-5.43
2022-12-18T11:07:01.344Z,-5.47
2022-12-18T11:08:00.439Z,-5.48
2022-12-18T11:09:00.412Z,-5.41
2022-12-18T11:10:00.534Z,-5.36
2022-12-18T11:11:00.390Z,-5.30
2022-12-18T11:12:00.417Z,-5.22
2022-12-18T11:13:00.901Z,-5.10
2022-12-18T11:14:00.319Z,-5.00
2022-12-18T11:15:08.401Z,-4.95
2022-12-18T11:16:00.346Z,-4.90
2022-12-18T11:17:24.794Z,-4.79
2022-12-18T11:18:02.964Z,-4.68
2022-12-18T11:19:00.290Z,-4.53
2022-12-18T11:20:00.251Z,-4.49
2022-12-18T11:21:00.333Z,-4.40
2022-12-18T11:22:00.215Z,-4.35
2022-12-18T11:23:00.259Z,-4.20
2022-12-18T11:24:00.229Z,-4.20
2022-12-18T11:26:01.483Z,-4.01
2022-12-18T11:27:00.210Z,-4.00
2022-12-18T11:28:00.148Z,-3.94
2022-12-18T11:29:00.163Z,-3.96
2022-12-18T11:30:00.170Z,-3.99
2022-12-18T11:31:00.214Z,-4.01
2022-12-18T11:32:00.159Z,-3.94
2022-12-18T11:33:00.137Z,-3.85
2022-12-18T11:34:27.435Z,-3.85
2022-12-18T11:35:01.097Z,-3.81
2022-12-18T11:36:00.110Z,-3.78
2022-12-18T11:37:00.075Z,-3.69
2022-12-18T11:38:00.033Z,-3.60
2022-12-18T11:39:00.082Z,-3.56
2022-12-18T11:40:00.015Z,-3.56
2022-12-18T11:41:00.002Z,-3.54
2022-12-18T11:42:00.043Z,-3.66
2022-12-18T11:42:59.979Z,-3.90
2022-12-18T11:43:59.959Z,-4.03
2022-12-18T11:44:59.998Z,-4.04
2022-12-18T11:45:59.971Z,-4.04
2022-12-18T11:47:00.034Z,-4.04
2022-12-18T11:47:59.939Z,-4.04
2022-12-18T11:48:59.900Z,-4.03
2022-12-18T11:49:59.881Z,-3.93
2022-12-18T11:50:59.949Z,-3.85
2022-12-18T11:51:59.875Z,-3.83
2022-12-18T11:53:05.473Z,-3.76
2022-12-18T11:54:00.828Z,-3.64
2022-12-18T11:54:59.858Z,-3.62
2022-12-18T11:55:59.797Z,-3.62
2022-12-18T11:56:59.929Z,-3.69
2022-12-18T11:57:59.828Z,-3.69
2022-12-18T11:58:59.800Z,-3.63
2022-12-18T11:59:59.779Z,-3.56
2022-12-18T12:00:59.830Z,-3.46
2022-12-18T12:01:59.786Z,-3.41
2022-12-18T12:03:00.517Z,-3.38
2022-12-18T12:03:59.789Z,-3.38
2022-12-18T12:04:59.704Z,-3.45
2022-12-18T12:05:59.711Z,-3.46
2022-12-18T12:07:03.076Z,-3.42
2022-12-18T12:07:59.685Z,-3.36
2022-12-18T12:08:59.755Z,-3.28
2022-12-18T12:09:59.635Z,-3.21
2022-12-18T12:10:59.663Z,-3.21
2022-12-18T12:11:59.611Z,-3.18
2022-12-18T12:12:59.634Z,-3.14
2022-12-18T12:13:59.595Z,-3.15
2022-12-18T12:14:59.933Z,-3.12
2022-12-18T12:15:59.622Z,-3.14
2022-12-18T12:16:59.581Z,-3.27
2022-12-18T12:17:59.530Z,-3.35
2022-12-18T12:18:59.539Z,-3.31
2022-12-18T12:19:59.500Z,-3.28
2022-12-18T12:20:59.640Z,-3.28
2022-12-18T12:21:59.498Z,-3.24
2022-12-18T12:22:59.532Z,-3.20
2022-12-18T12:23:59.451Z,-3.12
2022-12-18T12:24:59.559Z,-3.07
2022-12-18T12:25:59.438Z,-2.97
2022-12-18T12:26:59.646Z,-2.96
2022-12-18T12:27:59.411Z,-2.88
2022-12-18T12:28:59.407Z,-2.82
2022-12-18T12:29:59.377Z,-2.81
2022-12-18T12:30:59.417Z,-2.73
2022-12-18T12:31:59.446Z,-2.66
2022-12-18T12:33:00.058Z,-2.61
2022-12-18T12:33:59.365Z,-2.55
2022-12-18T12:35:01.674Z,-2.55
2022-12-18T12:35:59.295Z,-2.55
2022-12-18T12:36:59.322Z,-2.49
2022-12-18T12:37:59.272Z,-2.45
2022-12-18T12:38:59.331Z,-2.35
2022-12-18T12:39:59.253Z,-2.29
2022-12-18T12:41:03.149Z,-2.30
2022-12-18T12:41:59.269Z,-2.29
2022-12-18T12:42:59.279Z,-2.24
2022-12-18T12:43:59.281Z,-2.16
2022-12-18T12:44:59.271Z,-2.18
2022-12-18T12:45:59.255Z,-2.13
2022-12-18T12:46:59.200Z,-2.10
2022-12-18T12:47:59.184Z,-2.08
2022-12-18T12:48:59.159Z,-2.03
2022-12-18T12:49:59.212Z,-2.02
2022-12-18T12:51:00.031Z,-2.02
2022-12-18T12:51:59.094Z,-2.05
2022-12-18T12:52:59.123Z,-2.05
2022-12-18T12:53:59.075Z,-2.06
2022-12-18T12:54:59.085Z,-2.09
2022-12-18T12:55:59.048Z,-2.12
2022-12-18T12:56:59.117Z,-2.15
2022-12-18T12:57:59.027Z,-2.15
2022-12-18T12:58:59.162Z,-2.12
2022-12-18T12:59:58.994Z,-2.12
2022-12-18T13:00:59.157Z,-2.20
2022-12-18T13:01:59.099Z,-2.18
2022-12-18T13:02:59.023Z,-2.16
2022-12-18T13:03:58.952Z,-2.13
2022-12-18T13:04:58.970Z,-2.12
2022-12-18T13:05:58.939Z,-2.15
2022-12-18T13:06:58.942Z,-2.15
2022-12-18T13:09:00.183Z,-2.06
2022-12-18T13:09:58.903Z,-2.02
2022-12-18T13:10:58.870Z,-2.02
2022-12-18T13:12:59.866Z,-1.88
2022-12-18T13:13:43.837Z,-2.09
2022-12-18T13:13:46.668Z,-1.94
2022-12-18T13:13:58.843Z,-1.87
2022-12-18T13:14:58.847Z,-1.87
2022-12-18T13:15:58.799Z,-1.85
2022-12-18T13:16:58.798Z,-1.85
2022-12-18T13:17:59.274Z,-1.87
2022-12-18T13:18:58.832Z,-1.90
2022-12-18T13:19:58.756Z,-1.84
2022-12-18T13:21:02.945Z,-1.79
2022-12-18T13:21:58.784Z,-1.74
2022-12-18T13:22:58.739Z,-1.79
2022-12-18T13:23:58.920Z,-1.84
2022-12-18T13:24:58.707Z,-1.87
2022-12-18T13:25:58.725Z,-1.85
2022-12-18T13:26:58.686Z,-1.77
2022-12-18T13:27:58.653Z,-1.82
2022-12-18T13:28:58.647Z,-1.82
2022-12-18T13:29:58.897Z,-1.80
2022-12-18T13:30:58.773Z,-1.82
2022-12-18T13:31:58.602Z,-1.77
2022-12-18T13:32:58.606Z,-1.73
2022-12-18T13:34:26.262Z,-1.77
2022-12-18T13:34:59.712Z,-1.85
2022-12-18T13:35:58.593Z,-1.82
2022-12-18T13:36:58.574Z,-1.84
2022-12-18T13:37:58.544Z,-1.84
2022-12-18T13:38:58.574Z,-1.87
2022-12-18T13:39:58.692Z,-1.91
2022-12-18T13:40:58.682Z,-1.94
2022-12-18T13:41:58.490Z,-1.97
2022-12-18T13:42:58.503Z,-2.05
2022-12-18T13:43:58.443Z,-2.09
2022-12-18T13:44:58.509Z,-2.15
2022-12-18T13:45:58.440Z,-2.16
2022-12-18T13:46:58.504Z,-2.16
2022-12-18T13:47:58.395Z,-2.20
2022-12-18T13:48:58.408Z,-2.21
2022-12-18T13:49:58.377Z,-2.20
2022-12-18T13:50:58.378Z,-2.16
2022-12-18T13:51:58.335Z,-2.13
2022-12-18T13:52:58.500Z,-2.15
2022-12-18T13:53:58.318Z,-2.13
2022-12-18T13:54:58.506Z,-2.10
2022-12-18T13:55:58.336Z,-2.08
2022-12-18T13:56:58.626Z,-2.03
2022-12-18T13:57:58.575Z,-2.03
2022-12-18T13:58:58.274Z,-2.06
2022-12-18T13:59:58.248Z,-2.08
2022-12-18T14:00:58.291Z,-2.15
2022-12-18T14:02:05.886Z,-2.24
2022-12-18T14:03:05.828Z,-2.26
2022-12-18T14:03:58.178Z,-2.27
2022-12-18T14:04:58.227Z,-2.30
2022-12-18T14:05:58.157Z,-2.32
2022-12-18T14:06:58.271Z,-2.34
2022-12-18T14:07:58.263Z,-2.30
2022-12-18T14:08:58.155Z,-2.32
2022-12-18T14:10:06.486Z,-2.30
2022-12-18T14:10:59.127Z,-2.27
2022-12-18T14:11:58.101Z,-2.30
2022-12-18T14:13:02.229Z,-2.29
2022-12-18T14:13:59.267Z,-2.29
2022-12-18T14:14:58.057Z,-2.30
2022-12-18T14:15:59.003Z,-2.35
2022-12-18T14:16:58.095Z,-2.42
2022-12-18T14:17:58.025Z,-2.45
2022-12-18T14:18:59.104Z,-2.49
2022-12-18T14:19:59.288Z,-2.58
2022-12-18T14:20:57.993Z,-2.67
2022-12-18T14:21:57.963Z,-2.73
2022-12-18T14:22:57.960Z,-2.78
2022-12-18T14:23:57.974Z,-2.85
2022-12-18T14:24:57.951Z,-2.88
2022-12-18T14:26:03.626Z,-2.91
2022-12-18T14:26:58.921Z,-2.94
2022-12-18T14:27:57.968Z,-2.97
2022-12-18T14:28:57.887Z,-3.00
2022-12-18T14:29:57.872Z,-3.02
2022-12-18T14:30:57.913Z,-3.02
2022-12-18T14:32:03.012Z,-3.02
2022-12-18T14:33:04.757Z,-3.05
2022-12-18T14:33:57.817Z,-3.06
2022-12-18T14:34:57.831Z,-3.09
2022-12-18T14:35:57.785Z,-3.14
2022-12-18T14:36:57.825Z,-3.18
2022-12-18T14:38:01.515Z,-3.20
2022-12-18T14:38:58.977Z,-3.23
2022-12-18T14:39:57.752Z,-3.24
2022-12-18T14:40:57.735Z,-3.27
2022-12-18T14:41:57.704Z,-3.31
2022-12-18T14:42:57.813Z,-3.36
2022-12-18T14:43:57.707Z,-3.39
2022-12-18T14:45:13.377Z,-3.42
2022-12-18T14:45:58.710Z,-3.46
2022-12-18T14:46:57.678Z,-3.49
2022-12-18T14:47:57.720Z,-3.56
2022-12-18T14:48:57.635Z,-3.57
2022-12-18T14:49:57.617Z,-3.62
2022-12-18T14:50:57.974Z,-3.66
2022-12-18T14:51:57.590Z,-3.72
2022-12-18T14:52:57.590Z,-3.78
2022-12-18T14:53:57.839Z,-3.85
2022-12-18T14:54:57.607Z,-3.93
2022-12-18T14:55:57.608Z,-3.97
2022-12-18T14:56:57.570Z,-4.03
2022-12-18T14:57:57.594Z,-4.11
2022-12-18T14:58:57.547Z,-4.14
2022-12-18T14:59:57.502Z,-4.14
2022-12-18T15:00:57.693Z,-4.18
2022-12-18T15:01:57.717Z,-4.20
2022-12-18T15:02:57.773Z,-4.20
2022-12-18T15:03:57.683Z,-4.21
2022-12-18T15:04:57.484Z,-4.24
2022-12-18T15:05:57.424Z,-4.29
2022-12-18T15:06:57.631Z,-4.32
2022-12-18T15:07:57.442Z,-4.35
2022-12-18T15:08:57.421Z,-4.43
2022-12-18T15:09:57.619Z,-4.49
2022-12-18T15:10:57.372Z,-4.54
2022-12-18T15:11:57.364Z,-4.58
2022-12-18T15:12:57.353Z,-4.61
2022-12-18T15:13:57.346Z,-4.68
2022-12-18T15:14:57.335Z,-4.74
2022-12-18T15:15:57.655Z,-4.79
2022-12-18T15:16:57.280Z,-4.85
2022-12-18T15:17:57.299Z,-4.92
2022-12-18T15:18:57.285Z,-4.95
2022-12-18T15:19:57.299Z,-4.96
2022-12-18T15:20:57.258Z,-4.95
2022-12-18T15:22:00.258Z,-4.99
2022-12-18T15:22:58.213Z,-5.00
2022-12-18T15:23:57.256Z,-5.03
2022-12-18T15:24:57.198Z,-5.03
2022-12-18T15:25:57.223Z,-5.06
2022-12-18T15:26:57.183Z,-5.07
2022-12-18T15:27:57.683Z,-5.11
2022-12-18T15:28:57.136Z,-5.10
2022-12-18T15:29:57.153Z,-5.08
2022-12-18T15:30:57.192Z,-5.08
2022-12-18T15:31:57.137Z,-5.07
2022-12-18T15:32:57.082Z,-5.11
2022-12-18T15:33:57.254Z,-5.17
2022-12-18T15:34:57.085Z,-5.18
2022-12-18T15:35:57.064Z,-5.18
2022-12-18T15:36:57.042Z,-5.17
2022-12-18T15:37:57.032Z,-5.10
2022-12-18T15:39:04.779Z,-5.06
2022-12-18T15:39:58.730Z,-5.03
2022-12-18T15:40:56.992Z,-4.97
2022-12-18T15:41:57.009Z,-5.00
2022-12-18T15:42:57.048Z,-5.04
2022-12-18T15:43:56.960Z,-5.07
2022-12-18T15:44:56.950Z,-5.11
2022-12-18T15:45:57.154Z,-5.14
2022-12-18T15:46:56.912Z,-5.18
2022-12-18T15:47:56.949Z,-5.23
2022-12-18T15:49:01.835Z,-5.26
2022-12-18T15:49:57.917Z,-5.27
2022-12-18T15:50:56.886Z,-5.29
2022-12-18T15:51:59.873Z,-5.27
2022-12-18T15:52:56.874Z,-5.27
2022-12-18T15:53:56.846Z,-5.25
2022-12-18T15:55:04.329Z,-5.26
2022-12-18T15:56:04.357Z,-5.22
2022-12-18T15:57:05.672Z,-5.25
2022-12-18T15:58:04.314Z,-5.19
2022-12-18T15:59:04.273Z,-5.17
2022-12-18T16:00:04.289Z,-5.18
2022-12-18T16:00:56.731Z,-5.18
2022-12-18T16:01:56.901Z,-5.11
2022-12-18T16:02:57.150Z,-5.03
2022-12-18T16:03:57.225Z,-4.96
2022-12-18T16:04:57.984Z,-4.93
2022-12-18T16:05:58.444Z,-4.90
2022-12-18T16:07:14.848Z,-4.86
2022-12-18T16:07:57.691Z,-4.79
2022-12-18T16:08:56.655Z,-4.78
2022-12-18T16:09:56.703Z,-4.74
2022-12-18T16:10:56.615Z,-4.69
2022-12-18T16:11:57.110Z,-4.65
2022-12-18T16:12:56.601Z,-4.60
2022-12-18T16:13:56.720Z,-4.60
2022-12-18T16:14:56.596Z,-4.60
2022-12-18T16:15:56.756Z,-4.61
2022-12-18T16:16:56.704Z,-4.57
2022-12-18T16:17:56.853Z,-4.58
2022-12-18T16:18:56.573Z,-4.57
2022-12-18T16:19:56.680Z,-4.58
2022-12-18T16:20:56.550Z,-4.61
2022-12-18T16:21:56.512Z,-4.68
2022-12-18T16:22:56.561Z,-4.72
2022-12-18T16:23:56.481Z,-4.77
2022-12-18T16:24:57.627Z,-4.79
2022-12-18T16:25:56.557Z,-4.83
2022-12-18T16:26:56.434Z,-4.89
2022-12-18T16:27:56.439Z,-4.92
2022-12-18T16:28:56.510Z,-4.95
2022-12-18T16:29:56.670Z,-4.99
2022-12-18T16:30:56.930Z,-4.99
2022-12-18T16:31:56.424Z,-4.99
2022-12-18T16:32:56.357Z,-4.99
2022-12-18T16:33:56.591Z,-5.00
2022-12-18T16:34:56.386Z,-5.04
2022-12-18T16:35:56.361Z,-5.08
2022-12-18T16:37:05.782Z,-5.10
2022-12-18T16:37:56.379Z,-5.08
2022-12-18T16:38:56.327Z,-5.06
2022-12-18T16:39:56.295Z,-5.07
2022-12-18T16:40:56.273Z,-5.06
2022-12-18T16:41:56.276Z,-5.06
2022-12-18T16:42:57.497Z,-5.07
2022-12-18T16:43:56.245Z,-5.08
2022-12-18T16:44:56.294Z,-5.14
2022-12-18T16:45:56.293Z,-5.19
2022-12-18T16:46:56.253Z,-5.25
2022-12-18T16:47:56.311Z,-5.27
2022-12-18T16:48:56.748Z,-5.29
2022-12-18T16:49:56.166Z,-5.30
2022-12-18T16:50:56.161Z,-5.32
2022-12-18T16:51:56.142Z,-5.32
2022-12-18T16:52:56.126Z,-5.30
2022-12-18T16:53:56.148Z,-5.30
2022-12-18T16:54:56.883Z,-5.30
2022-12-18T16:55:56.098Z,-5.29
2022-12-18T16:56:56.254Z,-5.26
2022-12-18T16:57:56.090Z,-5.22
2022-12-18T16:58:56.096Z,-5.17
2022-12-18T16:59:58.748Z,-5.17
2022-12-18T17:00:57.190Z,-5.14
2022-12-18T17:01:56.205Z,-5.14
2022-12-18T17:02:56.124Z,-5.18
2022-12-18T17:03:56.127Z,-5.17
2022-12-18T17:04:55.977Z,-5.18
2022-12-18T17:05:56.061Z,-5.14
2022-12-18T17:06:55.975Z,-5.11
2022-12-18T17:07:55.978Z,-5.10
2022-12-18T17:08:55.955Z,-5.10
2022-12-18T17:09:55.924Z,-5.07
2022-12-18T17:10:55.904Z,-5.08
2022-12-18T17:11:56.082Z,-5.08
2022-12-18T17:12:55.892Z,-5.10
2022-12-18T17:13:55.911Z,-5.11
2022-12-18T17:14:55.867Z,-5.14
2022-12-18T17:15:55.928Z,-5.17
2022-12-18T17:17:19.852Z,-5.18
2022-12-18T17:17:57.219Z,-5.18
2022-12-18T17:18:55.894Z,-5.22
2022-12-18T17:19:55.818Z,-5.19
2022-12-18T17:20:55.770Z,-5.18
2022-12-18T17:21:55.861Z,-5.18
2022-12-18T17:22:55.766Z,-5.18
2022-12-18T17:23:56.306Z,-5.19
2022-12-18T17:24:56.103Z,-5.18
2022-12-18T17:25:55.747Z,-5.14
2022-12-18T17:26:55.776Z,-5.10
2022-12-18T17:27:55.734Z,-5.10
2022-12-18T17:28:55.679Z,-5.06
2022-12-18T17:29:55.863Z,-5.04
2022-12-18T17:30:56.473Z,-4.99
2022-12-18T17:31:55.655Z,-4.96
2022-12-18T17:32:55.635Z,-4.95
2022-12-18T17:33:55.705Z,-4.95
2022-12-18T17:34:55.827Z,-4.90
2022-12-18T17:35:55.944Z,-4.89
2022-12-18T17:36:55.582Z,-4.86
2022-12-18T17:37:55.639Z,-4.83
2022-12-18T17:38:55.566Z,-4.79
2022-12-18T17:39:56.242Z,-4.77
2022-12-18T17:40:55.576Z,-4.74
2022-12-18T17:41:55.780Z,-4.74
2022-12-18T17:42:55.510Z,-4.72
2022-12-18T17:43:55.523Z,-4.68
2022-12-18T17:44:55.488Z,-4.65
2022-12-18T17:45:55.490Z,-4.61
2022-12-18T17:46:55.569Z,-4.61
2022-12-18T17:47:59.857Z,-4.60